Time;durP1;ratioP1;P1;durP2;ratioP2;P2;SDS_P1;SDS_P2;PMS_P1;PMS_P2;Temp;Humidity;BMP_temperature;BMP_pressure;BME280_temperature;BME280_humidity;BME280_pressure;Samples;Min_cycle;Max_cycle;Signal;HPM_P1;HPM_P2
2022/04/17 00:00:29;;;;;;;3.58;2.08;;;13.10;50.70;;;;;;5073882;28;20100;-74
2022/04/17 00:02:55;;;;;;;3.47;2.13;;;13.20;51.00;;;;;;5073612;28;20107;-74
2022/04/17 00:05:21;;;;;;;5.30;2.60;;;13.20;51.00;;;;;;5073604;28;20059;-74
2022/04/17 00:07:47;;;;;;;3.90;2.28;;;13.20;50.80;;;;;;5073783;28;20033;-74
2022/04/17 00:10:13;;;;;;;6.35;2.33;;;13.20;51.10;;;;;;5073163;28;20488;-74
2022/04/17 00:12:39;;;;;;;4.00;2.33;;;13.20;51.30;;;;;;5073585;28;20063;-74
2022/04/17 00:15:06;;;;;;;6.43;2.90;;;13.20;51.30;;;;;;5073400;28;20028;-74
2022/04/17 00:17:32;;;;;;;5.20;2.45;;;13.20;51.60;;;;;;5073656;28;20379;-74
2022/04/17 00:19:58;;;;;;;4.38;2.20;;;13.20;51.00;;;;;;5073182;28;20107;-74
2022/04/17 00:22:24;;;;;;;4.10;2.40;;;13.20;51.20;;;;;;5073292;28;20112;-74
2022/04/17 00:24:50;;;;;;;7.53;2.50;;;13.20;50.90;;;;;;5073300;28;20031;-74
2022/04/17 00:27:16;;;;;;;4.22;2.55;;;13.20;51.10;;;;;;5073263;28;20036;-74
2022/04/17 00:29:44;;;;;;;4.03;2.83;;;13.20;51.60;;;;;;5073141;28;20020;-74
2022/04/17 00:32:10;;;;;;;4.13;2.33;;;13.10;51.30;;;;;;5073109;28;20036;-73
2022/04/17 00:34:37;;;;;;;5.50;2.53;;;13.10;51.20;;;;;;5073375;28;20043;-74
2022/04/17 00:37:03;;;;;;;3.08;2.00;;;13.10;51.10;;;;;;5073484;28;20336;-74
2022/04/17 00:39:29;;;;;;;3.08;2.08;;;13.10;52.20;;;;;;5073128;28;20032;-74
2022/04/17 00:41:55;;;;;;;3.10;2.17;;;13.10;52.00;;;;;;5073434;28;20025;-74
2022/04/17 00:44:21;;;;;;;5.40;2.60;;;13.10;51.70;;;;;;5072869;28;20062;-74
2022/04/17 00:46:47;;;;;;;4.43;2.42;;;13.10;51.70;;;;;;5073360;28;20028;-74
2022/04/17 00:49:13;;;;;;;3.08;2.10;;;13.20;52.10;;;;;;5073362;28;20356;-74
2022/04/17 00:51:41;;;;;;;4.47;2.13;;;13.20;52.30;;;;;;5073644;28;20039;-74
2022/04/17 00:54:08;;;;;;;3.45;1.80;;;13.30;52.20;;;;;;5077071;28;20068;-74
2022/04/17 00:56:34;;;;;;;3.13;2.22;;;13.30;51.40;;;;;;5077097;28;20032;-74
2022/04/17 00:59:05;;;;;;;3.78;2.30;;;13.30;52.00;;;;;;5077086;28;20357;-74
2022/04/17 01:01:33;;;;;;;5.05;2.20;;;13.30;52.00;;;;;;5077103;28;20024;-74
2022/04/17 01:04:00;;;;;;;6.85;2.95;;;13.30;51.70;;;;;;5076911;28;20464;-74
2022/04/17 01:06:28;;;;;;;5.03;2.40;;;13.30;51.60;;;;;;5076941;28;20033;-74
2022/04/17 01:08:55;;;;;;;3.47;2.50;;;13.30;51.70;;;;;;5076853;28;20073;-74
2022/04/17 01:11:20;;;;;;;4.18;2.40;;;13.30;51.60;;;;;;5076920;28;20024;-74
2022/04/17 01:13:47;;;;;;;4.35;2.50;;;13.30;51.90;;;;;;5076912;28;20032;-74
2022/04/17 01:16:16;;;;;;;3.95;2.35;;;13.30;52.00;;;;;;5077026;28;20070;-74
2022/04/17 01:19:11;;;;;;;4.55;2.72;;;13.30;52.20;;;;;;5076635;28;20020;-74
2022/04/17 01:21:37;;;;;;;5.93;2.10;;;13.30;52.00;;;;;;5076685;28;20484;-74
2022/04/17 01:26:56;;;;;;;5.20;2.20;;;13.20;51.70;;;;;;5076700;28;20112;-74
2022/04/17 01:29:35;;;;;;;4.28;2.85;;;13.20;51.50;;;;;;5076438;28;20111;-74
2022/04/17 01:32:03;;;;;;;3.63;2.40;;;13.20;52.00;;;;;;5076763;28;20016;-74
2022/04/17 01:34:29;;;;;;;3.80;2.53;;;13.20;51.90;;;;;;5076304;28;20036;-74
2022/04/17 01:36:55;;;;;;;6.30;2.92;;;13.20;51.80;;;;;;5076651;28;20021;-74
2022/04/17 01:39:21;;;;;;;4.80;3.05;;;13.30;52.20;;;;;;5076146;28;20025;-74
2022/04/17 01:41:48;;;;;;;5.43;2.75;;;13.30;52.40;;;;;;5076446;28;20027;-74
2022/04/17 01:44:18;;;;;;;4.63;2.92;;;13.30;51.90;;;;;;5076575;28;20096;-74
2022/04/17 01:46:45;;;;;;;4.63;2.80;;;13.30;51.50;;;;;;5076265;28;20451;-74
2022/04/17 01:49:11;;;;;;;5.20;2.90;;;13.30;51.50;;;;;;5075816;28;20486;-74
2022/04/17 01:51:38;;;;;;;4.43;3.05;;;13.20;51.30;;;;;;5076465;28;20037;-73
2022/04/17 01:54:08;;;;;;;5.43;2.78;;;13.30;51.70;;;;;;5076164;28;20090;-74
2022/04/17 01:56:36;;;;;;;4.07;2.15;;;13.30;51.90;;;;;;5076172;28;20017;-74
2022/04/17 01:59:04;;;;;;;5.22;2.90;;;13.20;51.70;;;;;;5076088;28;20028;-74
2022/04/17 02:01:29;;;;;;;5.22;3.38;;;13.20;51.50;;;;;;5075931;28;20021;-74
2022/04/17 02:03:55;;;;;;;5.53;3.60;;;13.20;52.10;;;;;;5075241;28;20025;-74
2022/04/17 02:06:20;;;;;;;6.00;3.90;;;13.10;51.00;;;;;;5075843;28;20052;-74
2022/04/17 02:08:46;;;;;;;5.97;3.35;;;13.00;51.50;;;;;;5076259;28;20029;-74
2022/04/17 02:11:12;;;;;;;4.57;2.80;;;13.00;52.00;;;;;;5075369;28;20120;-74
2022/04/17 02:13:38;;;;;;;6.75;3.70;;;12.90;51.60;;;;;;5075684;28;20436;-74
2022/04/17 02:16:04;;;;;;;6.18;3.78;;;12.80;51.90;;;;;;5075522;28;20064;-74
2022/04/17 02:18:30;;;;;;;5.20;3.38;;;12.80;51.80;;;;;;5075593;28;20040;-74
2022/04/17 02:20:56;;;;;;;5.43;3.13;;;12.80;52.00;;;;;;5075773;28;20017;-74
2022/04/17 02:23:21;;;;;;;5.78;3.75;;;12.70;52.50;;;;;;5075773;28;20028;-74
2022/04/17 02:25:47;;;;;;;6.38;3.72;;;12.80;52.30;;;;;;5075623;28;20359;-74
2022/04/17 02:28:16;;;;;;;5.88;3.45;;;12.70;52.40;;;;;;5075620;28;20028;-74
2022/04/17 02:30:42;;;;;;;7.15;3.35;;;12.70;52.50;;;;;;5075341;28;20025;-74
2022/04/17 02:33:07;;;;;;;6.10;3.58;;;12.70;52.50;;;;;;5075631;28;20036;-74
2022/04/17 02:35:33;;;;;;;5.57;3.67;;;12.70;52.50;;;;;;5075314;28;20017;-74
2022/04/17 02:37:59;;;;;;;6.25;3.67;;;12.70;52.50;;;;;;5075261;28;20027;-74
2022/04/17 02:40:24;;;;;;;5.70;4.05;;;12.70;52.10;;;;;;5075379;28;20452;-74
2022/04/17 02:42:50;;;;;;;5.13;3.33;;;12.70;52.30;;;;;;5075083;28;20020;-74
2022/04/17 02:45:17;;;;;;;7.60;4.05;;;12.70;53.10;;;;;;5074955;28;20403;-74
2022/04/17 02:47:42;;;;;;;6.78;4.05;;;12.70;52.50;;;;;;5075094;28;20112;-74
2022/04/17 02:50:10;;;;;;;5.68;3.85;;;12.70;52.80;;;;;;5075284;28;20099;-74
2022/04/17 02:52:36;;;;;;;7.15;4.25;;;12.70;52.80;;;;;;5075207;28;20063;-74
2022/04/17 02:55:02;;;;;;;6.05;4.03;;;12.60;52.50;;;;;;5075030;28;20078;-74
2022/04/17 02:57:28;;;;;;;8.60;4.25;;;12.60;52.70;;;;;;5075094;28;20021;-74
2022/04/17 02:59:53;;;;;;;5.35;3.63;;;12.60;53.00;;;;;;5075133;28;20031;-74
2022/04/17 03:07:48;;;;;;;8.80;3.58;;;12.60;53.00;;;;;;5074851;28;20517;-74
2022/04/17 03:10:13;;;;;;;7.32;3.45;;;12.50;52.80;;;;;;5074584;28;20123;-74
2022/04/17 03:12:39;;;;;;;5.63;3.85;;;12.50;53.50;;;;;;5074735;28;20365;-74
2022/04/17 03:15:06;;;;;;;8.40;4.30;;;12.40;53.40;;;;;;5074089;28;20025;-73
2022/04/17 03:17:32;;;;;;;8.48;3.97;;;12.40;53.80;;;;;;5074345;28;20025;-74
2022/04/17 03:19:58;;;;;;;5.50;3.65;;;12.50;53.70;;;;;;5074539;28;20154;-74
2022/04/17 03:22:25;;;;;;;7.15;3.92;;;12.50;53.50;;;;;;5074477;28;20021;-74
2022/04/17 03:24:51;;;;;;;7.70;4.55;;;12.50;53.30;;;;;;5074757;28;20036;-74
2022/04/17 03:27:17;;;;;;;7.00;4.38;;;12.50;52.80;;;;;;5074239;28;20029;-74
2022/04/17 03:29:42;;;;;;;6.03;4.07;;;12.40;52.90;;;;;;5074510;28;20020;-74
2022/04/17 03:32:08;;;;;;;7.38;3.92;;;12.40;53.20;;;;;;5074189;28;20082;-74
2022/04/17 03:34:34;;;;;;;6.32;4.30;;;12.40;53.30;;;;;;5074237;28;20028;-74
2022/04/17 03:37:00;;;;;;;8.07;4.07;;;12.40;53.70;;;;;;5074179;28;20471;-74
2022/04/17 03:39:26;;;;;;;7.50;4.15;;;12.40;53.70;;;;;;5074231;28;20107;-74
2022/04/17 03:41:53;;;;;;;9.48;3.95;;;12.50;53.50;;;;;;5073954;28;20024;-74
2022/04/17 03:44:19;;;;;;;8.80;4.15;;;12.40;53.40;;;;;;5073982;28;20112;-74
2022/04/17 03:46:45;;;;;;;5.57;3.78;;;12.40;53.20;;;;;;5073943;28;20078;-74
2022/04/17 03:49:11;;;;;;;5.18;3.55;;;12.40;52.90;;;;;;5073912;28;20450;-74
2022/04/17 03:51:37;;;;;;;8.60;5.10;;;12.40;53.40;;;;;;5073973;28;20097;-74
2022/04/17 03:54:03;;;;;;;7.05;4.68;;;12.30;52.20;;;;;;5073920;28;20367;-74
2022/04/17 03:56:28;;;;;;;8.38;4.88;;;12.20;52.20;;;;;;5073737;28;20365;-74
2022/04/17 03:58:54;;;;;;;7.10;3.60;;;12.10;52.30;;;;;;5073738;28;20036;-73
2022/04/17 04:01:20;;;;;;;5.57;4.00;;;12.10;53.00;;;;;;5073973;28;20024;-74
2022/04/17 04:03:47;;;;;;;8.45;4.00;;;12.10;53.00;;;;;;5073761;28;20021;-75
2022/04/17 04:06:12;;;;;;;6.55;4.03;;;12.10;53.10;;;;;;5073923;28;20031;-74
2022/04/17 04:08:38;;;;;;;6.70;3.90;;;12.20;53.10;;;;;;5073551;28;20017;-72
2022/04/17 04:11:03;;;;;;;5.65;3.65;;;12.20;53.10;;;;;;5073612;28;20055;-73
2022/04/17 04:13:29;;;;;;;6.57;3.80;;;12.20;53.10;;;;;;5073677;28;20043;-73
2022/04/17 04:15:55;;;;;;;7.18;3.95;;;12.30;52.80;;;;;;5073822;28;20349;-73
2022/04/17 04:18:21;;;;;;;6.80;3.90;;;12.30;53.10;;;;;;5073679;28;20036;-73
2022/04/17 04:20:47;;;;;;;6.28;4.07;;;12.30;53.20;;;;;;5073404;28;20165;-73
2022/04/17 04:23:13;;;;;;;8.75;5.18;;;12.30;52.60;;;;;;5073411;28;20020;-73
2022/04/17 04:25:38;;;;;;;10.73;5.05;;;12.20;52.00;;;;;;5073598;28;20400;-73
2022/04/17 04:30:48;;;;;;;7.75;4.72;;;11.90;52.10;;;;;;5073372;28;20031;-72
2022/04/17 04:33:14;;;;;;;8.90;4.80;;;11.70;52.40;;;;;;5073156;28;20396;-72
2022/04/17 04:35:40;;;;;;;8.88;4.53;;;11.60;52.40;;;;;;5073211;28;20028;-75
2022/04/17 04:38:06;;;;;;;6.15;4.47;;;11.50;53.20;;;;;;5073428;28;20017;-73
2022/04/17 04:40:32;;;;;;;6.10;4.40;;;11.50;53.30;;;;;;5073371;28;20033;-73
2022/04/17 04:43:01;;;;;;;6.95;4.10;;;11.60;54.00;;;;;;5073247;28;20027;-73
2022/04/17 04:48:13;;;;;;;10.05;5.20;;;11.70;53.60;;;;;;5073235;28;20027;-72
2022/04/17 04:50:38;;;;;;;7.72;5.00;;;11.60;52.60;;;;;;5073237;28;20021;-73
2022/04/17 04:53:04;;;;;;;10.40;5.07;;;11.50;53.20;;;;;;5072986;28;20474;-73
2022/04/17 04:55:30;;;;;;;7.35;4.60;;;11.50;53.70;;;;;;5073174;28;20025;-72
2022/04/17 04:57:56;;;;;;;6.47;4.28;;;11.60;53.90;;;;;;5073157;28;20065;-72
2022/04/17 05:00:22;;;;;;;5.50;4.07;;;11.60;54.20;;;;;;5072966;28;20099;-73
2022/04/17 05:02:47;;;;;;;6.95;4.60;;;11.70;53.50;;;;;;5073138;28;20028;-73
2022/04/17 05:05:13;;;;;;;9.30;4.65;;;11.60;54.00;;;;;;5073228;28;20048;-72
2022/04/17 05:07:39;;;;;;;11.20;5.20;;;11.60;53.60;;;;;;5072947;28;20108;-73
2022/04/17 05:10:06;;;;;;;9.02;4.68;;;11.60;53.50;;;;;;5072877;28;20072;-73
2022/04/17 05:12:33;;;;;;;6.47;4.72;;;11.50;53.40;;;;;;5073049;28;20029;-72
2022/04/17 05:14:59;;;;;;;7.05;4.50;;;11.40;53.50;;;;;;5073142;28;20037;-73
2022/04/17 05:17:25;;;;;;;7.47;5.05;;;11.40;53.80;;;;;;5072492;28;20032;-73
2022/04/17 05:19:51;;;;;;;8.20;4.63;;;11.30;53.70;;;;;;5073105;28;20021;-73
2022/04/17 05:22:17;;;;;;;8.55;4.90;;;11.30;54.10;;;;;;5073074;28;20027;-72
2022/04/17 05:24:44;;;;;;;9.20;5.43;;;11.30;54.00;;;;;;5073052;28;20029;-72
2022/04/17 05:27:10;;;;;;;8.82;5.18;;;11.40;54.20;;;;;;5072990;28;20031;-73
2022/04/17 05:29:35;;;;;;;8.88;5.18;;;11.40;53.80;;;;;;5072751;28;20032;-74
2022/04/17 05:32:02;;;;;;;8.05;4.28;;;11.40;54.20;;;;;;5072321;28;20051;-73
2022/04/17 05:34:28;;;;;;;7.05;4.10;;;11.50;54.70;;;;;;5072560;28;20480;-73
2022/04/17 05:36:54;;;;;;;7.70;4.68;;;11.70;55.40;;;;;;5072947;28;20029;-73
2022/04/17 05:39:19;;;;;;;7.75;5.10;;;11.80;54.50;;;;;;5075304;28;20030;-73
2022/04/17 05:41:46;;;;;;;7.43;5.00;;;11.80;53.60;;;;;;5076471;28;20028;-73
2022/04/17 05:44:12;;;;;;;8.95;4.90;;;11.80;53.70;;;;;;5076273;28;20498;-73
2022/04/17 05:46:40;;;;;;;8.40;5.30;;;11.70;53.50;;;;;;5076152;28;20040;-73
2022/04/17 05:49:07;;;;;;;10.30;5.28;;;11.70;53.30;;;;;;5076163;28;20085;-73
2022/04/17 05:51:34;;;;;;;6.82;4.45;;;11.60;53.50;;;;;;5076369;28;20086;-73
2022/04/17 05:54:01;;;;;;;9.52;4.45;;;11.60;53.60;;;;;;5076008;28;20036;-72
2022/04/17 05:56:27;;;;;;;5.57;4.30;;;11.70;54.10;;;;;;5076139;28;20066;-73
2022/04/17 05:58:53;;;;;;;7.15;5.25;;;11.80;54.90;;;;;;5076259;28;20035;-73
2022/04/17 06:01:18;;;;;;;7.88;4.63;;;12.00;53.70;;;;;;5075995;28;20021;-73
2022/04/17 06:03:44;;;;;;;7.88;3.92;;;12.00;53.50;;;;;;5076100;28;20593;-73
2022/04/17 06:06:10;;;;;;;8.77;4.97;;;12.10;53.70;;;;;;5076067;28;20066;-73
2022/04/17 06:08:36;;;;;;;6.75;4.63;;;12.20;54.10;;;;;;5076024;28;20028;-73
2022/04/17 06:11:01;;;;;;;8.93;5.13;;;12.20;53.30;;;;;;5075463;28;20036;-73
2022/04/17 06:13:27;;;;;;;9.75;6.28;;;12.20;53.40;;;;;;5075632;28;20537;-73
2022/04/17 06:15:53;;;;;;;8.27;5.85;;;12.10;52.50;;;;;;5075918;28;20028;-73
2022/04/17 06:18:18;;;;;;;7.75;5.30;;;11.90;53.10;;;;;;5075811;28;20078;-73
2022/04/17 06:20:44;;;;;;;7.68;5.15;;;11.90;53.40;;;;;;5075916;28;20027;-73
2022/04/17 06:23:10;;;;;;;7.90;5.55;;;11.90;53.20;;;;;;5075493;28;20388;-73
2022/04/17 06:25:35;;;;;;;10.80;5.10;;;11.90;53.00;;;;;;5075675;28;20027;-73
2022/04/17 06:28:01;;;;;;;8.05;4.88;;;11.80;53.00;;;;;;5075732;28;20028;-73
2022/04/17 06:30:27;;;;;;;11.80;5.10;;;11.70;53.50;;;;;;5075417;28;20020;-73
2022/04/17 06:32:53;;;;;;;9.15;5.03;;;11.90;53.50;;;;;;5075301;28;20395;-73
2022/04/17 06:35:19;;;;;;;9.48;5.50;;;11.90;53.60;;;;;;5075068;28;20013;-73
2022/04/17 06:37:55;;;;;;;7.35;5.05;;;11.90;52.50;;;;;;5075345;28;20376;-73
2022/04/17 06:40:23;;;;;;;8.05;4.80;;;11.90;53.00;;;;;;5075367;28;20020;-73
2022/04/17 06:42:50;;;;;;;7.03;5.05;;;12.00;53.50;;;;;;5075070;28;20095;-73
2022/04/17 06:45:17;;;;;;;8.45;5.95;;;12.10;53.70;;;;;;5075487;28;20043;-73
2022/04/17 06:47:43;;;;;;;7.88;4.55;;;12.00;53.30;;;;;;5074909;28;20017;-73
2022/04/17 06:50:10;;;;;;;10.52;4.82;;;12.00;53.50;;;;;;5074417;28;20032;-74
2022/04/17 06:52:36;;;;;;;8.25;4.82;;;12.10;53.20;;;;;;5074953;28;20056;-74
2022/04/17 06:55:03;;;;;;;8.98;5.10;;;12.20;53.60;;;;;;5075026;28;20104;-73
2022/04/17 06:57:30;;;;;;;11.02;5.60;;;12.20;53.70;;;;;;5074626;28;20074;-73
2022/04/17 06:59:56;;;;;;;7.95;4.70;;;12.10;53.80;;;;;;5074869;28;20029;-74
2022/04/17 07:02:22;;;;;;;8.32;4.82;;;12.10;53.10;;;;;;5074928;28;20028;-73
2022/04/17 07:04:48;;;;;;;9.68;5.53;;;12.10;53.10;;;;;;5074436;28;20028;-74
2022/04/17 07:07:13;;;;;;;8.52;4.68;;;12.10;53.40;;;;;;5074831;28;20119;-74
2022/04/17 07:09:39;;;;;;;8.18;4.55;;;12.20;53.20;;;;;;5074549;28;20131;-73
2022/04/17 07:12:05;;;;;;;8.40;4.72;;;12.20;53.20;;;;;;5074779;28;20077;-73
2022/04/17 07:14:32;;;;;;;7.93;4.40;;;12.20;53.90;;;;;;5074856;28;20029;-74
2022/04/17 07:16:57;;;;;;;10.65;5.22;;;12.30;53.90;;;;;;5074583;28;20471;-74
2022/04/17 07:19:23;;;;;;;8.48;5.43;;;12.40;53.90;;;;;;5074481;28;20086;-74
2022/04/17 07:21:48;;;;;;;6.90;4.07;;;12.30;54.70;;;;;;5074658;28;20486;-74
2022/04/17 07:24:14;;;;;;;8.88;4.88;;;12.40;54.00;;;;;;5074572;28;20403;-74
2022/04/17 07:26:40;;;;;;;8.43;4.97;;;12.40;53.90;;;;;;5074469;28;20020;-74
2022/04/17 07:29:06;;;;;;;6.88;4.38;;;12.50;54.10;;;;;;5073996;28;20024;-74
2022/04/17 07:31:31;;;;;;;6.88;4.97;;;12.70;54.20;;;;;;5074543;28;20024;-74
2022/04/17 07:34:00;;;;;;;6.32;4.35;;;12.80;54.30;;;;;;5074232;28;20039;-74
2022/04/17 07:36:25;;;;;;;6.15;4.47;;;13.00;53.80;;;;;;5074080;28;20373;-74
2022/04/17 07:38:51;;;;;;;7.53;4.82;;;13.00;53.00;;;;;;5074257;28;20073;-74
2022/04/17 07:41:17;;;;;;;8.15;4.13;;;13.00;54.20;;;;;;5073904;28;20024;-74
2022/04/17 07:43:42;;;;;;;7.07;4.28;;;13.10;54.20;;;;;;5074108;28;20074;-74
2022/04/17 07:46:08;;;;;;;6.88;4.32;;;13.20;53.40;;;;;;5073993;28;20020;-73
2022/04/17 07:48:33;;;;;;;6.75;3.90;;;13.30;53.10;;;;;;5073949;28;20267;-73
2022/04/17 07:50:59;;;;;;;5.85;4.10;;;13.50;53.00;;;;;;5073639;28;20029;-74
2022/04/17 07:53:24;;;;;;;5.97;3.85;;;13.50;52.40;;;;;;5073845;28;20047;-74
2022/04/17 07:55:50;;;;;;;5.78;4.13;;;13.60;52.30;;;;;;5073658;28;20020;-74
2022/04/17 07:58:24;;;;;;;6.10;3.90;;;13.70;52.40;;;;;;5073809;28;20036;-74
2022/04/17 08:00:59;;;;;;;6.68;4.13;;;13.80;52.40;;;;;;5073609;28;20483;-74
2022/04/17 08:06:01;;;;;;;7.13;3.90;;;14.00;52.80;;;;;;5073965;28;20122;-74
2022/04/17 08:08:28;;;;;;;7.75;4.10;;;14.10;52.80;;;;;;5073827;28;20036;-74
2022/04/17 08:10:53;;;;;;;6.25;3.40;;;14.10;51.80;;;;;;5073432;28;20040;-74
2022/04/17 08:13:19;;;;;;;8.35;3.78;;;14.20;52.00;;;;;;5072986;28;20058;-74
2022/04/17 08:15:44;;;;;;;7.05;4.07;;;14.20;52.30;;;;;;5073282;28;20017;-74
2022/04/17 08:18:10;;;;;;;6.68;3.97;;;14.30;52.10;;;;;;5073758;28;20078;-74
2022/04/17 08:20:36;;;;;;;5.40;3.45;;;14.30;52.30;;;;;;5073613;28;20029;-74
2022/04/17 08:23:01;;;;;;;7.35;3.40;;;14.40;52.30;;;;;;5073003;28;20025;-74
2022/04/17 08:25:27;;;;;;;5.22;3.13;;;14.50;52.10;;;;;;5073558;28;20033;-74
2022/04/17 08:27:55;;;;;;;5.20;3.63;;;14.60;51.40;;;;;;5073281;28;20021;-74
2022/04/17 08:30:30;;;;;;;6.63;3.63;;;14.60;51.90;;;;;;5073266;28;20132;-74
2022/04/17 08:32:56;;;;;;;5.65;4.10;;;14.80;52.80;;;;;;5073238;28;20103;-74
2022/04/17 08:35:22;;;;;;;4.43;3.30;;;14.70;52.10;;;;;;5073448;28;20032;-74
2022/04/17 08:37:48;;;;;;;5.25;3.33;;;14.70;51.50;;;;;;5073567;28;20025;-74
2022/04/17 08:40:14;;;;;;;5.90;3.22;;;14.80;52.80;;;;;;5073130;28;20025;-74
2022/04/17 08:42:40;;;;;;;6.85;3.72;;;15.00;52.40;;;;;;5073204;28;20041;-74
2022/04/17 08:45:09;;;;;;;5.53;3.50;;;15.10;53.00;;;;;;5073101;28;20032;-74
2022/04/17 08:47:44;;;;;;;5.20;3.30;;;15.20;52.70;;;;;;5073325;28;20325;-74
2022/04/17 08:50:15;;;;;;;5.45;4.15;;;15.30;51.20;;;;;;5073323;28;20024;-74
2022/04/17 08:52:45;;;;;;;4.43;3.42;;;15.40;52.10;;;;;;5073146;28;20118;-74
2022/04/17 08:55:11;;;;;;;5.95;3.35;;;15.40;52.00;;;;;;5073364;28;20146;-74
2022/04/17 08:57:37;;;;;;;6.63;3.70;;;15.50;51.70;;;;;;5072887;28;20099;-74
2022/04/17 09:00:04;;;;;;;6.28;3.65;;;15.60;51.90;;;;;;5073028;28;20027;-74
2022/04/17 09:02:30;;;;;;;6.93;3.40;;;15.60;51.70;;;;;;5072851;28;20017;-74
2022/04/17 09:04:56;;;;;;;5.45;3.30;;;15.60;51.40;;;;;;5072887;28;20024;-74
2022/04/17 09:07:22;;;;;;;9.05;3.22;;;15.60;51.30;;;;;;5073264;28;20031;-74
2022/04/17 09:09:53;;;;;;;4.43;3.28;;;15.70;51.80;;;;;;5072820;28;20495;-74
2022/04/17 09:12:23;;;;;;;5.72;3.30;;;15.90;50.80;;;;;;5072918;28;20094;-74
2022/04/17 09:14:50;;;;;;;4.03;3.20;;;15.90;51.40;;;;;;5076406;28;20107;-74
2022/04/17 09:17:16;;;;;;;7.53;3.20;;;15.90;51.60;;;;;;5076956;28;20021;-74
2022/04/17 09:19:43;;;;;;;6.38;2.88;;;15.90;50.50;;;;;;5076973;28;20028;-74
2022/04/17 09:22:12;;;;;;;6.03;3.20;;;16.00;50.60;;;;;;5076590;28;20021;-74
2022/04/17 09:24:39;;;;;;;5.47;2.72;;;16.00;50.50;;;;;;5076417;28;20027;-74
2022/04/17 09:27:06;;;;;;;4.00;2.60;;;16.00;51.80;;;;;;5076686;28;20024;-74
2022/04/17 09:29:37;;;;;;;4.38;2.60;;;16.10;51.10;;;;;;5076479;28;20047;-74
2022/04/17 09:32:02;;;;;;;4.75;2.55;;;16.10;49.90;;;;;;5076957;28;20067;-74
2022/04/17 09:34:41;;;;;;;5.20;2.28;;;16.20;50.80;;;;;;5076493;28;20535;-74
2022/04/17 09:37:12;;;;;;;3.13;1.60;;;16.30;50.70;;;;;;5076216;28;20459;-74
2022/04/17 09:39:38;;;;;;;3.65;1.90;;;16.60;49.60;;;;;;5076378;28;20024;-74
2022/04/17 09:42:05;;;;;;;4.55;2.33;;;16.80;49.60;;;;;;5076164;28;20021;-74
2022/04/17 09:44:37;;;;;;;4.18;2.10;;;17.00;48.60;;;;;;5076520;28;20047;-74
2022/04/17 09:47:04;;;;;;;;;;;17.00;48.30;;;;;;5076969;28;20029;-74
2022/04/17 09:49:30;;;;;;;3.88;2.08;;;17.10;49.10;;;;;;5076230;28;19998;-74
2022/04/17 09:52:08;;;;;;;2.70;1.75;;;17.10;49.10;;;;;;5076393;28;20025;-74
2022/04/17 09:54:35;;;;;;;4.20;2.28;;;17.20;47.90;;;;;;5076353;28;20389;-74
2022/04/17 09:57:01;;;;;;;5.40;2.10;;;17.30;48.10;;;;;;5076019;28;20456;-74
2022/04/17 09:59:27;;;;;;;3.75;1.92;;;17.30;48.70;;;;;;5076187;28;20035;-74
2022/04/17 10:01:57;;;;;;;3.83;1.80;;;17.30;47.90;;;;;;5076090;28;20413;-75
2022/04/17 10:04:24;;;;;;;2.38;1.70;;;17.40;48.00;;;;;;5075875;28;20096;-74
2022/04/17 10:06:55;;;;;;;4.50;2.20;;;17.50;48.10;;;;;;5076070;28;20067;-74
2022/04/17 10:09:21;;;;;;;3.40;1.88;;;17.70;47.30;;;;;;5076123;28;20049;-74
2022/04/17 10:11:49;;;;;;;3.05;2.00;;;17.80;47.00;;;;;;5075704;28;20479;-74
2022/04/17 10:14:15;;;;;;;3.92;1.90;;;17.90;46.20;;;;;;5075732;28;20043;-74
2022/04/17 10:16:42;;;;;;;4.47;2.50;;;18.00;46.00;;;;;;5075722;28;20108;-74
2022/04/17 10:19:11;;;;;;;4.70;2.20;;;18.10;47.90;;;;;;5075654;28;20057;-74
2022/04/17 10:21:41;;;;;;;2.58;1.50;;;18.20;47.50;;;;;;5075604;28;20070;-74
2022/04/17 10:24:14;;;;;;;4.43;1.80;;;18.40;46.30;;;;;;5074789;28;20024;-74
2022/04/17 10:26:50;;;;;;;;;;;18.50;44.60;;;;;;5075307;28;20082;-74
2022/04/17 10:29:50;;;;;;;6.57;2.00;;;18.50;45.90;;;;;;5075721;28;19908;-74
2022/04/17 10:32:35;;;;;;;4.07;1.88;;;18.60;46.80;;;;;;5074795;28;20434;-74
2022/04/17 10:35:20;;;;;;;2.00;1.60;;;18.70;46.00;;;;;;5075197;28;20029;-74
2022/04/17 10:38:29;;;;;;;2.47;1.25;;;18.80;44.70;;;;;;5075457;28;20169;-74
2022/04/17 10:41:07;;;;;;;3.03;1.50;;;18.90;43.70;;;;;;5074883;28;20071;-74
2022/04/17 10:43:42;;;;;;;2.65;1.52;;;18.90;43.30;;;;;;5075392;28;20028;-74
2022/04/17 10:46:18;;;;;;;2.30;1.60;;;18.90;42.60;;;;;;5075144;28;20027;-74
2022/04/17 10:48:55;;;;;;;3.58;1.70;;;19.00;42.50;;;;;;5075021;28;20426;-74
2022/04/17 10:51:31;;;;;;;4.70;2.00;;;18.90;44.70;;;;;;5075170;28;20074;-74
2022/04/17 10:54:09;;;;;;;3.50;1.88;;;19.00;44.30;;;;;;5074832;28;20066;-74
2022/04/17 10:56:41;;;;;;;2.85;1.38;;;19.10;44.50;;;;;;5074962;28;20032;-74
2022/04/17 10:59:20;;;;;;;3.05;1.83;;;19.10;44.20;;;;;;5075137;28;20108;-74
2022/04/17 11:01:48;;;;;;;3.97;2.10;;;19.20;44.40;;;;;;5074865;28;20456;-74
2022/04/17 11:04:28;;;;;;;3.00;1.98;;;19.40;43.70;;;;;;5074859;28;20329;-74
2022/04/17 11:07:14;;;;;;;2.38;1.75;;;19.50;43.20;;;;;;5074456;28;20047;-74
2022/04/17 11:09:46;;;;;;;3.13;1.83;;;19.60;42.60;;;;;;5074029;28;20534;-74
2022/04/17 11:12:17;;;;;;;3.55;2.28;;;19.60;42.80;;;;;;5074916;28;20129;-74
2022/04/17 11:15:01;;;;;;;2.70;1.90;;;19.60;43.10;;;;;;5074703;28;20032;-74
2022/04/17 11:17:28;;;;;;;3.38;2.10;;;19.60;42.60;;;;;;5074247;28;20020;-74
2022/04/17 11:19:58;;;;;;;4.65;2.30;;;19.70;42.40;;;;;;5074154;28;20116;-74
2022/04/17 11:22:32;;;;;;;5.45;2.60;;;19.80;43.20;;;;;;5074416;28;20025;-74
2022/04/17 11:24:58;;;;;;;3.95;1.60;;;20.00;43.10;;;;;;5074654;28;20102;-74
2022/04/17 11:27:48;;;;;;;6.80;2.35;;;20.10;43.10;;;;;;5074348;28;20444;-74
2022/04/17 11:30:13;;;;;;;4.55;2.53;;;20.20;43.40;;;;;;5074189;28;20490;-74
2022/04/17 11:32:49;;;;;;;1.92;1.58;;;20.20;42.90;;;;;;5074381;28;20029;-74
2022/04/17 11:35:17;;;;;;;2.63;1.77;;;20.30;42.50;;;;;;5073474;28;20020;-73
2022/04/17 11:37:56;;;;;;;3.95;1.80;;;20.40;40.70;;;;;;5073931;28;20050;-73
2022/04/17 11:40:24;;;;;;;6.20;2.13;;;20.50;41.50;;;;;;5074310;28;20053;-73
2022/04/17 11:42:52;;;;;;;4.00;1.92;;;20.50;40.20;;;;;;5073669;28;20039;-74
2022/04/17 11:45:25;;;;;;;6.55;2.17;;;20.50;40.70;;;;;;5074223;28;20104;-73
2022/04/17 11:47:51;;;;;;;3.75;2.03;;;20.60;42.80;;;;;;5074463;28;20055;-74
2022/04/17 11:50:28;;;;;;;4.75;1.80;;;20.70;40.70;;;;;;5074334;28;20024;-74
2022/04/17 11:52:56;;;;;;;6.03;1.98;;;20.70;40.40;;;;;;5074210;28;20025;-73
2022/04/17 11:55:25;;;;;;;4.20;1.63;;;20.70;39.00;;;;;;5074103;28;20032;-73
2022/04/17 11:57:52;;;;;;;3.80;1.40;;;20.80;39.20;;;;;;5074008;28;20104;-73
2022/04/17 12:00:17;;;;;;;4.68;2.20;;;20.70;39.40;;;;;;5074190;28;20078;-73
2022/04/17 12:02:43;;;;;;;3.55;1.92;;;20.80;39.80;;;;;;5073952;28;20399;-73
2022/04/17 12:05:12;;;;;;;3.22;1.48;;;20.80;39.40;;;;;;5074101;28;20024;-73
2022/04/17 12:07:38;;;;;;;3.72;1.75;;;20.90;39.30;;;;;;5073915;28;20527;-73
2022/04/17 12:10:14;;;;;;;4.30;2.00;;;21.00;39.40;;;;;;5073625;28;20175;-73
2022/04/17 12:12:45;;;;;;;4.53;1.80;;;21.00;39.70;;;;;;5073778;28;20036;-73
2022/04/17 12:15:13;;;;;;;4.53;1.70;;;21.10;39.80;;;;;;5073896;28;20052;-73
2022/04/17 12:17:40;;;;;;;3.05;1.70;;;21.10;39.60;;;;;;5073862;28;20024;-73
2022/04/17 12:20:14;;;;;;;3.65;1.80;;;21.20;39.10;;;;;;5073700;28;20222;-73
2022/04/17 12:22:41;;;;;;;4.50;2.08;;;21.30;39.30;;;;;;5073412;28;20093;-73
2022/04/17 12:25:23;;;;;;;5.70;2.17;;;21.40;39.60;;;;;;5073379;28;20025;-73
2022/04/17 12:27:50;;;;;;;2.78;1.33;;;21.50;40.90;;;;;;5073520;28;20033;-74
2022/04/17 12:30:24;;;;;;;4.35;2.35;;;21.60;40.00;;;;;;5073078;28;20506;-74
2022/04/17 12:32:51;;;;;;;5.38;2.00;;;21.50;40.10;;;;;;5073042;28;20035;-74
2022/04/17 12:35:22;;;;;;;4.90;2.47;;;21.40;41.40;;;;;;5072978;28;20468;-74
2022/04/17 12:37:47;;;;;;;3.97;1.85;;;21.40;40.90;;;;;;5073450;28;20024;-74
2022/04/17 12:40:21;;;;;;;5.38;2.10;;;21.50;41.40;;;;;;5073060;28;20491;-74
2022/04/17 12:42:48;;;;;;;5.38;1.88;;;21.60;39.80;;;;;;5073319;28;20062;-74
2022/04/17 12:45:25;;;;;;;3.28;2.00;;;21.60;39.40;;;;;;5072946;28;20028;-74
2022/04/17 12:48:01;;;;;;;4.30;2.17;;;21.70;39.90;;;;;;5072203;28;20032;-74
2022/04/17 12:50:26;;;;;;;3.40;2.05;;;21.80;40.50;;;;;;5073139;28;20028;-74
2022/04/17 12:52:56;;;;;;;3.28;1.75;;;21.80;39.80;;;;;;5073289;28;20035;-73
2022/04/17 12:55:30;;;;;;;3.28;2.17;;;21.90;40.60;;;;;;5073161;28;20056;-74
2022/04/17 12:57:56;;;;;;;4.80;2.60;;;22.00;40.70;;;;;;5073052;28;20379;-74
2022/04/17 13:00:28;;;;;;;4.43;2.40;;;22.00;41.40;;;;;;5073348;28;20024;-74
2022/04/17 13:03:15;;;;;;;3.50;2.70;;;22.00;39.00;;;;;;5072991;28;20416;-74
2022/04/17 13:05:41;;;;;;;4.15;2.53;;;21.80;39.00;;;;;;5073330;28;20028;-74
2022/04/17 13:08:09;;;;;;;5.05;2.92;;;21.80;39.10;;;;;;5072928;28;20123;-74